sensor_id;sensor_type;location;lat;lon;timestamp;pressure;altitude;pressure_sealevel;temperature;humidity
57234;BME280;43090;52.604;13.318;2023-08-17T00:01:31;101562.38;;;20.80;90.07
57234;BME280;43090;52.604;13.318;2023-08-17T00:03:58;101556.25;;;20.78;88.39
57234;BME280;43090;52.604;13.318;2023-08-17T00:06:24;101547.44;;;20.48;91.93
57234;BME280;43090;52.604;13.318;2023-08-17T00:08:52;101544.00;;;20.64;90.71
57234;BME280;43090;52.604;13.318;2023-08-17T00:11:18;101547.38;;;20.76;90.53
57234;BME280;43090;52.604;13.318;2023-08-17T00:13:45;101541.38;;;20.73;89.07
57234;BME280;43090;52.604;13.318;2023-08-17T00:16:11;101539.78;;;20.80;89.44
57234;BME280;43090;52.604;13.318;2023-08-17T00:18:38;101531.13;;;20.67;89.70
57234;BME280;43090;52.604;13.318;2023-08-17T00:21:05;101531.38;;;20.73;89.22
57234;BME280;43090;52.604;13.318;2023-08-17T00:23:31;101536.50;;;20.76;89.60
57234;BME280;43090;52.604;13.318;2023-08-17T00:25:58;101524.72;;;20.40;92.05
57234;BME280;43090;52.604;13.318;2023-08-17T00:28:25;101534.84;;;20.47;89.19
57234;BME280;43090;52.604;13.318;2023-08-17T00:30:51;101532.66;;;20.51;87.22
57234;BME280;43090;52.604;13.318;2023-08-17T00:33:18;101530.94;;;20.50;89.70
57234;BME280;43090;52.604;13.318;2023-08-17T00:35:45;101514.25;;;20.45;90.72
57234;BME280;43090;52.604;13.318;2023-08-17T00:38:12;101513.31;;;20.36;91.02
57234;BME280;43090;52.604;13.318;2023-08-17T00:40:38;101498.25;;;20.42;89.68
57234;BME280;43090;52.604;13.318;2023-08-17T00:43:05;101510.72;;;20.35;89.52
57234;BME280;43090;52.604;13.318;2023-08-17T00:45:31;101517.72;;;20.19;88.43
57234;BME280;43090;52.604;13.318;2023-08-17T00:47:58;101509.56;;;20.19;91.37
57234;BME280;43090;52.604;13.318;2023-08-17T00:50:27;101508.06;;;20.07;90.29
57234;BME280;43090;52.604;13.318;2023-08-17T00:52:54;101512.50;;;20.08;91.09
57234;BME280;43090;52.604;13.318;2023-08-17T00:55:22;101518.34;;;20.13;93.25
57234;BME280;43090;52.604;13.318;2023-08-17T00:57:48;101516.56;;;20.22;88.94
57234;BME280;43090;52.604;13.318;2023-08-17T01:00:15;101505.63;;;20.31;89.20
57234;BME280;43090;52.604;13.318;2023-08-17T01:02:46;101523.97;;;20.29;90.87
57234;BME280;43090;52.604;13.318;2023-08-17T01:05:13;101521.78;;;20.51;89.09
57234;BME280;43090;52.604;13.318;2023-08-17T01:07:39;101523.97;;;20.29;90.68
57234;BME280;43090;52.604;13.318;2023-08-17T01:10:06;101526.44;;;20.41;89.70
57234;BME280;43090;52.604;13.318;2023-08-17T01:13:02;101521.59;;;20.35;89.31
57234;BME280;43090;52.604;13.318;2023-08-17T01:15:40;101527.75;;;20.37;90.42
57234;BME280;43090;52.604;13.318;2023-08-17T01:18:34;101521.78;;;20.33;90.19
57234;BME280;43090;52.604;13.318;2023-08-17T01:21:05;101511.97;;;20.22;91.05
57234;BME280;43090;52.604;13.318;2023-08-17T01:23:32;101510.66;;;20.26;91.22
57234;BME280;43090;52.604;13.318;2023-08-17T01:25:58;101493.22;;;20.01;91.91
57234;BME280;43090;52.604;13.318;2023-08-17T01:28:25;101500.16;;;20.13;91.55
57234;BME280;43090;52.604;13.318;2023-08-17T01:31:07;101498.06;;;20.25;90.99
57234;BME280;43090;52.604;13.318;2023-08-17T01:33:42;101502.34;;;20.10;90.82
57234;BME280;43090;52.604;13.318;2023-08-17T01:52:15;101514.31;;;19.14;100.00
57234;BME280;43090;52.604;13.318;2023-08-17T01:54:42;101516.50;;;19.48;98.38
57234;BME280;43090;52.604;13.318;2023-08-17T01:57:08;101517.41;;;19.67;97.17
57234;BME280;43090;52.604;13.318;2023-08-17T01:59:34;101527.13;;;19.69;96.43
57234;BME280;43090;52.604;13.318;2023-08-17T02:02:01;101525.56;;;19.67;95.79
57234;BME280;43090;52.604;13.318;2023-08-17T02:04:27;101525.56;;;19.67;95.24
57234;BME280;43090;52.604;13.318;2023-08-17T02:06:54;101522.78;;;19.76;95.10
57234;BME280;43090;52.604;13.318;2023-08-17T02:09:20;101533.31;;;19.61;94.78
57234;BME280;43090;52.604;13.318;2023-08-17T02:11:52;101531.41;;;19.72;94.73
57234;BME280;43090;52.604;13.318;2023-08-17T02:14:18;101516.63;;;19.84;93.94
57234;BME280;43090;52.604;13.318;2023-08-17T02:16:45;101524.94;;;19.83;93.59
57234;BME280;43090;52.604;13.318;2023-08-17T02:19:11;101528.53;;;19.73;93.87
57234;BME280;43090;52.604;13.318;2023-08-17T02:21:38;101511.63;;;19.79;93.37
57234;BME280;43090;52.604;13.318;2023-08-17T02:24:05;101530.03;;;19.95;92.93
57234;BME280;43090;52.604;13.318;2023-08-17T02:26:31;101529.53;;;19.72;92.77
57234;BME280;43090;52.604;13.318;2023-08-17T02:28:58;101514.50;;;19.50;94.84
57234;BME280;43090;52.604;13.318;2023-08-17T02:31:24;101507.63;;;19.46;95.59
57234;BME280;43090;52.604;13.318;2023-08-17T02:33:51;101504.56;;;19.59;94.68
57234;BME280;43090;52.604;13.318;2023-08-17T02:36:17;101497.44;;;19.58;94.24
57234;BME280;43090;52.604;13.318;2023-08-17T02:38:44;101504.88;;;19.56;94.19
57234;BME280;43090;52.604;13.318;2023-08-17T02:41:10;101500.59;;;19.53;95.03
57234;BME280;43090;52.604;13.318;2023-08-17T02:43:37;101506.94;;;19.34;96.01
57234;BME280;43090;52.604;13.318;2023-08-17T02:46:03;101502.81;;;19.40;95.36
57234;BME280;43090;52.604;13.318;2023-08-17T02:48:33;101501.44;;;19.63;92.75
57234;BME280;43090;52.604;13.318;2023-08-17T02:51:00;101492.25;;;19.64;92.60
57234;BME280;43090;52.604;13.318;2023-08-17T02:53:26;101486.22;;;19.43;93.35
57234;BME280;43090;52.604;13.318;2023-08-17T02:55:55;101489.22;;;19.40;92.31
57234;BME280;43090;52.604;13.318;2023-08-17T02:58:22;101487.88;;;19.54;92.15
57234;BME280;43090;52.604;13.318;2023-08-17T03:00:51;101494.44;;;19.61;91.38
57234;BME280;43090;52.604;13.318;2023-08-17T03:03:17;101491.72;;;19.61;90.38
57234;BME280;43090;52.604;13.318;2023-08-17T03:05:44;101495.59;;;19.58;91.34
57234;BME280;43090;52.604;13.318;2023-08-17T03:08:10;101480.88;;;19.51;90.79
57234;BME280;43090;52.604;13.318;2023-08-17T03:10:37;101493.47;;;19.52;91.29
57234;BME280;43090;52.604;13.318;2023-08-17T03:13:04;101491.31;;;19.56;91.71
57234;BME280;43090;52.604;13.318;2023-08-17T03:15:30;101490.84;;;19.60;90.24
57234;BME280;43090;52.604;13.318;2023-08-17T03:17:59;101497.16;;;19.61;88.41
57234;BME280;43090;52.604;13.318;2023-08-17T03:20:25;101494.88;;;19.56;88.86
57234;BME280;43090;52.604;13.318;2023-08-17T03:22:52;101489.03;;;19.51;89.18
57234;BME280;43090;52.604;13.318;2023-08-17T03:25:19;101494.47;;;19.51;89.76
57234;BME280;43090;52.604;13.318;2023-08-17T03:27:45;101505.13;;;19.35;89.12
57234;BME280;43090;52.604;13.318;2023-08-17T03:30:12;101487.09;;;19.34;89.50
57234;BME280;43090;52.604;13.318;2023-08-17T03:32:38;101501.28;;;19.55;88.20
57234;BME280;43090;52.604;13.318;2023-08-17T03:35:05;101494.03;;;19.46;85.83
57234;BME280;43090;52.604;13.318;2023-08-17T03:37:31;101489.34;;;19.01;87.34
57234;BME280;43090;52.604;13.318;2023-08-17T03:39:58;101484.78;;;19.01;88.21
57234;BME280;43090;52.604;13.318;2023-08-17T03:42:26;101490.28;;;19.19;82.71
57234;BME280;43090;52.604;13.318;2023-08-17T03:44:53;101496.38;;;19.41;82.83
57234;BME280;43090;52.604;13.318;2023-08-17T03:47:19;101488.91;;;18.95;79.92
57234;BME280;43090;52.604;13.318;2023-08-17T03:49:46;101483.16;;;19.18;80.05
57234;BME280;43090;52.604;13.318;2023-08-17T03:52:13;101487.44;;;19.21;84.27
57234;BME280;43090;52.604;13.318;2023-08-17T03:54:39;101493.59;;;19.13;83.30
57234;BME280;43090;52.604;13.318;2023-08-17T03:57:06;101480.09;;;18.93;83.54
57234;BME280;43090;52.604;13.318;2023-08-17T03:59:33;101473.78;;;19.03;85.17
57234;BME280;43090;52.604;13.318;2023-08-17T04:01:59;101484.13;;;19.27;85.69
57234;BME280;43090;52.604;13.318;2023-08-17T04:04:26;101466.22;;;18.96;84.12
57234;BME280;43090;52.604;13.318;2023-08-17T04:06:56;101470.50;;;18.79;80.00
57234;BME280;43090;52.604;13.318;2023-08-17T04:09:23;101480.34;;;19.00;82.44
57234;BME280;43090;52.604;13.318;2023-08-17T04:11:50;101484.91;;;19.09;80.30
57234;BME280;43090;52.604;13.318;2023-08-17T04:14:16;101479.03;;;19.14;78.91
57234;BME280;43090;52.604;13.318;2023-08-17T04:16:45;101464.97;;;18.52;80.03
57234;BME280;43090;52.604;13.318;2023-08-17T04:19:12;101468.50;;;18.81;79.19
57234;BME280;43090;52.604;13.318;2023-08-17T04:21:38;101474.09;;;18.90;79.42
57234;BME280;43090;52.604;13.318;2023-08-17T04:24:05;101457.09;;;18.78;79.42
57234;BME280;43090;52.604;13.318;2023-08-17T04:26:31;101469.22;;;18.74;80.43
57234;BME280;43090;52.604;13.318;2023-08-17T04:28:58;101457.94;;;18.98;84.32
57234;BME280;43090;52.604;13.318;2023-08-17T04:31:24;101465.34;;;19.06;82.96
57234;BME280;43090;52.604;13.318;2023-08-17T04:33:51;101459.19;;;19.04;83.49
57234;BME280;43090;52.604;13.318;2023-08-17T04:36:18;101482.44;;;19.16;82.76
57234;BME280;43090;52.604;13.318;2023-08-17T04:38:44;101463.03;;;19.11;82.85
57234;BME280;43090;52.604;13.318;2023-08-17T04:41:11;101463.16;;;19.19;80.68
57234;BME280;43090;52.604;13.318;2023-08-17T04:43:37;101453.31;;;19.08;80.18
57234;BME280;43090;52.604;13.318;2023-08-17T04:46:04;101470.72;;;19.25;78.20
57234;BME280;43090;52.604;13.318;2023-08-17T04:48:30;101465.75;;;19.11;78.58
57234;BME280;43090;52.604;13.318;2023-08-17T04:50:57;101454.50;;;18.86;78.85
57234;BME280;43090;52.604;13.318;2023-08-17T04:53:24;101474.25;;;19.26;81.35
57234;BME280;43090;52.604;13.318;2023-08-17T04:56:05;101457.91;;;19.08;84.61
57234;BME280;43090;52.604;13.318;2023-08-17T04:58:36;101465.50;;;19.04;81.14
57234;BME280;43090;52.604;13.318;2023-08-17T05:01:03;101460.69;;;19.26;80.55
57234;BME280;43090;52.604;13.318;2023-08-17T05:03:29;101460.13;;;19.22;80.35
57234;BME280;43090;52.604;13.318;2023-08-17T05:05:59;101455.06;;;19.09;77.31
57234;BME280;43090;52.604;13.318;2023-08-17T05:08:26;101459.88;;;19.15;78.96
57234;BME280;43090;52.604;13.318;2023-08-17T05:10:52;101470.66;;;19.35;81.24
57234;BME280;43090;52.604;13.318;2023-08-17T05:13:19;101469.50;;;19.38;79.12
57234;BME280;43090;52.604;13.318;2023-08-17T05:15:45;101477.25;;;19.33;81.24
57234;BME280;43090;52.604;13.318;2023-08-17T05:18:12;101461.50;;;19.36;82.77
57234;BME280;43090;52.604;13.318;2023-08-17T05:20:38;101490.00;;;19.60;83.18
57234;BME280;43090;52.604;13.318;2023-08-17T05:23:05;101490.16;;;19.58;83.06
57234;BME280;43090;52.604;13.318;2023-08-17T05:25:31;101498.50;;;19.75;83.07
57234;BME280;43090;52.604;13.318;2023-08-17T05:27:58;101491.72;;;19.61;83.33
57234;BME280;43090;52.604;13.318;2023-08-17T05:30:24;101483.44;;;19.53;83.08
57234;BME280;43090;52.604;13.318;2023-08-17T05:32:51;101466.81;;;19.65;81.58
57234;BME280;43090;52.604;13.318;2023-08-17T05:35:17;101497.63;;;19.84;81.55
57234;BME280;43090;52.604;13.318;2023-08-17T05:37:45;101479.06;;;19.70;82.71
57234;BME280;43090;52.604;13.318;2023-08-17T05:40:12;101462.44;;;19.55;81.76
57234;BME280;43090;52.604;13.318;2023-08-17T05:42:38;101484.47;;;19.79;81.60
57234;BME280;43090;52.604;13.318;2023-08-17T05:45:05;101483.50;;;19.71;82.09
57234;BME280;43090;52.604;13.318;2023-08-17T05:47:32;101469.13;;;19.60;82.64
57234;BME280;43090;52.604;13.318;2023-08-17T05:49:58;101479.78;;;19.72;82.95
57234;BME280;43090;52.604;13.318;2023-08-17T05:52:25;101494.63;;;19.87;82.79
57234;BME280;43090;52.604;13.318;2023-08-17T05:54:51;101498.19;;;19.88;82.44
57234;BME280;43090;52.604;13.318;2023-08-17T05:57:18;101508.13;;;19.97;82.73
57234;BME280;43090;52.604;13.318;2023-08-17T05:59:44;101512.97;;;20.03;81.87
57234;BME280;43090;52.604;13.318;2023-08-17T06:02:11;101517.56;;;20.21;81.69
57234;BME280;43090;52.604;13.318;2023-08-17T06:04:39;101522.44;;;20.17;82.73
57234;BME280;43090;52.604;13.318;2023-08-17T06:07:20;101511.94;;;20.04;80.61
57234;BME280;43090;52.604;13.318;2023-08-17T06:13:46;101565.47;;;20.04;77.00
57234;BME280;43090;52.604;13.318;2023-08-17T06:16:13;101595.44;;;20.40;76.74
57234;BME280;43090;52.604;13.318;2023-08-17T06:18:40;101567.34;;;20.03;76.81
57234;BME280;43090;52.604;13.318;2023-08-17T06:21:12;101580.41;;;20.18;78.26
57234;BME280;43090;52.604;13.318;2023-08-17T06:23:47;101570.50;;;19.98;81.44
57234;BME280;43090;52.604;13.318;2023-08-17T06:26:25;101523.22;;;19.81;81.47
57234;BME280;43090;52.604;13.318;2023-08-17T06:29:07;101528.94;;;19.78;81.58
57234;BME280;43090;52.604;13.318;2023-08-17T06:31:47;101530.44;;;20.01;81.77
57234;BME280;43090;52.604;13.318;2023-08-17T06:34:40;101564.84;;;20.38;82.10
57234;BME280;43090;52.604;13.318;2023-08-17T06:37:27;101532.25;;;20.10;77.36
57234;BME280;43090;52.604;13.318;2023-08-17T06:40:00;101528.41;;;20.03;76.46
57234;BME280;43090;52.604;13.318;2023-08-17T06:42:34;101532.66;;;20.15;76.55
57234;BME280;43090;52.604;13.318;2023-08-17T06:45:09;101531.63;;;20.16;77.40
57234;BME280;43090;52.604;13.318;2023-08-17T06:47:43;101523.78;;;20.49;76.04
57234;BME280;43090;52.604;13.318;2023-08-17T06:50:16;101542.72;;;20.87;75.75
57234;BME280;43090;52.604;13.318;2023-08-17T06:56:39;101526.59;;;20.93;71.76
57234;BME280;43090;52.604;13.318;2023-08-17T06:59:25;101492.16;;;20.66;71.81
57234;BME280;43090;52.604;13.318;2023-08-17T07:02:08;101492.41;;;20.73;71.45
57234;BME280;43090;52.604;13.318;2023-08-17T07:04:39;101525.19;;;20.53;72.86
57234;BME280;43090;52.604;13.318;2023-08-17T07:07:18;101507.41;;;20.59;74.01
57234;BME280;43090;52.604;13.318;2023-08-17T07:09:48;101523.91;;;20.75;71.92
57234;BME280;43090;52.604;13.318;2023-08-17T07:12:26;101498.63;;;20.47;77.73
57234;BME280;43090;52.604;13.318;2023-08-17T07:18:15;101493.34;;;20.27;74.62
57234;BME280;43090;52.604;13.318;2023-08-17T07:28:00;101495.19;;;20.45;73.99
57234;BME280;43090;52.604;13.318;2023-08-17T07:30:31;101524.13;;;20.46;72.85
57234;BME280;43090;52.604;13.318;2023-08-17T07:33:00;101541.78;;;20.78;74.68
57234;BME280;43090;52.604;13.318;2023-08-17T07:35:30;101501.47;;;20.63;74.07
57234;BME280;43090;52.604;13.318;2023-08-17T07:37:59;101507.09;;;20.62;77.20
57234;BME280;43090;52.604;13.318;2023-08-17T07:44:26;101537.59;;;21.10;75.95
57234;BME280;43090;52.604;13.318;2023-08-17T07:46:55;101518.06;;;20.88;77.18
57234;BME280;43090;52.604;13.318;2023-08-17T07:49:53;101509.94;;;20.96;78.35
57234;BME280;43090;52.604;13.318;2023-08-17T07:52:25;101552.47;;;21.16;75.51
57234;BME280;43090;52.604;13.318;2023-08-17T07:57:48;101492.41;;;20.73;79.02
57234;BME280;43090;52.604;13.318;2023-08-17T08:04:40;101484.78;;;20.58;77.34
57234;BME280;43090;52.604;13.318;2023-08-17T08:11:59;101476.09;;;20.73;74.33
57234;BME280;43090;52.604;13.318;2023-08-17T08:14:38;101489.22;;;20.77;74.23
57234;BME280;43090;52.604;13.318;2023-08-17T08:17:57;101503.38;;;21.07;74.08
57234;BME280;43090;52.604;13.318;2023-08-17T08:20:41;101471.25;;;21.11;73.17
57234;BME280;43090;52.604;13.318;2023-08-17T08:23:09;101473.53;;;21.24;72.70
57234;BME280;43090;52.604;13.318;2023-08-17T08:25:36;101496.97;;;21.17;72.35
57234;BME280;43090;52.604;13.318;2023-08-17T08:28:03;101449.16;;;20.88;73.14
57234;BME280;43090;52.604;13.318;2023-08-17T08:30:30;101467.28;;;21.32;72.90
57234;BME280;43090;52.604;13.318;2023-08-17T08:32:57;101448.41;;;21.30;73.60
57234;BME280;43090;52.604;13.318;2023-08-17T08:35:30;101454.28;;;21.17;77.35
57234;BME280;43090;52.604;13.318;2023-08-17T08:37:58;101456.66;;;21.20;77.70
57234;BME280;43090;52.604;13.318;2023-08-17T08:40:32;101451.22;;;21.20;77.30
57234;BME280;43090;52.604;13.318;2023-08-17T08:42:59;101438.00;;;21.34;77.46
57234;BME280;43090;52.604;13.318;2023-08-17T08:45:27;101450.16;;;21.47;80.13
57234;BME280;43090;52.604;13.318;2023-08-17T08:47:57;101425.88;;;21.54;81.94
57234;BME280;43090;52.604;13.318;2023-08-17T08:50:29;101415.53;;;21.32;84.19
57234;BME280;43090;52.604;13.318;2023-08-17T08:53:02;101420.75;;;21.51;81.95
57234;BME280;43090;52.604;13.318;2023-08-17T08:56:02;101451.25;;;21.63;80.80
57234;BME280;43090;52.604;13.318;2023-08-17T08:58:29;101420.25;;;21.21;86.42
57234;BME280;43090;52.604;13.318;2023-08-17T09:01:00;101420.78;;;21.25;85.74
57234;BME280;43090;52.604;13.318;2023-08-17T09:03:27;101426.31;;;21.07;87.64
57234;BME280;43090;52.604;13.318;2023-08-17T09:05:55;101419.91;;;21.24;85.96
57234;BME280;43090;52.604;13.318;2023-08-17T09:08:27;101424.56;;;21.32;84.90
57234;BME280;43090;52.604;13.318;2023-08-17T09:10:54;101403.94;;;21.29;87.51
57234;BME280;43090;52.604;13.318;2023-08-17T09:13:21;101393.03;;;21.21;87.75
57234;BME280;43090;52.604;13.318;2023-08-17T09:15:48;101411.25;;;21.55;85.73
57234;BME280;43090;52.604;13.318;2023-08-17T09:18:16;101434.28;;;21.35;89.04
57234;BME280;43090;52.604;13.318;2023-08-17T09:21:04;101403.38;;;21.18;90.07
57234;BME280;43090;52.604;13.318;2023-08-17T09:23:31;101427.28;;;21.67;87.37
57234;BME280;43090;52.604;13.318;2023-08-17T09:26:43;101446.31;;;21.58;88.18
57234;BME280;43090;52.604;13.318;2023-08-17T09:29:28;101412.25;;;21.54;86.58
57234;BME280;43090;52.604;13.318;2023-08-17T09:32:14;101414.34;;;21.69;87.39
57234;BME280;43090;52.604;13.318;2023-08-17T09:39:29;101421.38;;;21.96;88.50
57234;BME280;43090;52.604;13.318;2023-08-17T09:42:05;101407.09;;;22.02;86.76
57234;BME280;43090;52.604;13.318;2023-08-17T09:44:45;101413.28;;;22.45;83.34
57234;BME280;43090;52.604;13.318;2023-08-17T09:47:14;101430.09;;;22.90;79.92
57234;BME280;43090;52.604;13.318;2023-08-17T09:49:48;101428.41;;;22.89;78.33
57234;BME280;43090;52.604;13.318;2023-08-17T09:52:40;101406.63;;;22.48;80.16
57234;BME280;43090;52.604;13.318;2023-08-17T09:58:57;101406.44;;;22.50;85.25
57234;BME280;43090;52.604;13.318;2023-08-17T10:01:36;101411.88;;;22.66;84.62
57234;BME280;43090;52.604;13.318;2023-08-17T10:04:22;101411.38;;;22.62;83.23
57234;BME280;43090;52.604;13.318;2023-08-17T10:07:00;101437.28;;;22.83;87.10
57234;BME280;43090;52.604;13.318;2023-08-17T10:10:11;101408.66;;;22.62;87.06
57234;BME280;43090;52.604;13.318;2023-08-17T10:16:00;101403.19;;;22.46;85.66
57234;BME280;43090;52.604;13.318;2023-08-17T10:25:39;101396.69;;;22.06;86.72
57234;BME280;43090;52.604;13.318;2023-08-17T10:32:03;101391.09;;;22.32;88.04
57234;BME280;43090;52.604;13.318;2023-08-17T10:34:46;101392.31;;;22.38;89.07
57234;BME280;43090;52.604;13.318;2023-08-17T10:37:14;101405.25;;;22.60;87.24
57234;BME280;43090;52.604;13.318;2023-08-17T10:39:59;101387.69;;;22.46;85.60
57234;BME280;43090;52.604;13.318;2023-08-17T10:42:33;101406.78;;;22.63;86.70
57234;BME280;43090;52.604;13.318;2023-08-17T10:45:28;101401.34;;;22.46;88.56
57234;BME280;43090;52.604;13.318;2023-08-17T10:50:38;101400.88;;;22.99;85.42
57234;BME280;43090;52.604;13.318;2023-08-17T10:53:28;101412.88;;;23.46;81.10
57234;BME280;43090;52.604;13.318;2023-08-17T10:56:40;101392.16;;;23.20;83.98
57234;BME280;43090;52.604;13.318;2023-08-17T10:59:24;101386.50;;;23.30;82.39
57234;BME280;43090;52.604;13.318;2023-08-17T11:01:51;101417.59;;;23.52;83.23
57234;BME280;43090;52.604;13.318;2023-08-17T11:07:54;101410.09;;;24.17;77.93
57234;BME280;43090;52.604;13.318;2023-08-17T11:12:47;101407.84;;;23.98;77.52
57234;BME280;43090;52.604;13.318;2023-08-17T11:15:19;101396.03;;;23.66;76.63
57234;BME280;43090;52.604;13.318;2023-08-17T11:17:45;101412.69;;;23.79;78.61
57234;BME280;43090;52.604;13.318;2023-08-17T11:20:12;101410.91;;;23.63;79.53
57234;BME280;43090;52.604;13.318;2023-08-17T11:22:41;101416.94;;;24.13;73.80
57234;BME280;43090;52.604;13.318;2023-08-17T11:25:07;101402.25;;;23.91;73.99
57234;BME280;43090;52.604;13.318;2023-08-17T11:27:34;101406.53;;;24.32;71.44
57234;BME280;43090;52.604;13.318;2023-08-17T11:30:05;101400.41;;;24.06;72.97
57234;BME280;43090;52.604;13.318;2023-08-17T11:32:31;101412.81;;;24.55;71.47
57234;BME280;43090;52.604;13.318;2023-08-17T11:35:04;101415.91;;;24.37;73.54
57234;BME280;43090;52.604;13.318;2023-08-17T11:37:51;101394.50;;;23.94;75.46
57234;BME280;43090;52.604;13.318;2023-08-17T11:40:26;101385.81;;;24.14;75.18
57234;BME280;43090;52.604;13.318;2023-08-17T11:46:51;101390.22;;;24.00;76.39
57234;BME280;43090;52.604;13.318;2023-08-17T11:49:18;101384.59;;;24.40;71.08
57234;BME280;43090;52.604;13.318;2023-08-17T11:51:44;101406.31;;;24.80;76.79
57234;BME280;43090;52.604;13.318;2023-08-17T11:54:11;101394.88;;;24.76;72.07
57234;BME280;43090;52.604;13.318;2023-08-17T11:56:37;101410.28;;;25.22;67.73
57234;BME280;43090;52.604;13.318;2023-08-17T11:59:11;101408.94;;;24.88;71.08
57234;BME280;43090;52.604;13.318;2023-08-17T12:01:40;101392.72;;;24.86;74.24
57234;BME280;43090;52.604;13.318;2023-08-17T12:04:07;101389.50;;;24.83;69.66
57234;BME280;43090;52.604;13.318;2023-08-17T12:06:33;101408.84;;;24.66;76.81
57234;BME280;43090;52.604;13.318;2023-08-17T12:09:04;101392.91;;;24.85;73.08
57234;BME280;43090;52.604;13.318;2023-08-17T12:11:32;101394.03;;;24.52;73.77
57234;BME280;43090;52.604;13.318;2023-08-17T12:13:59;101397.22;;;24.64;77.37
57234;BME280;43090;52.604;13.318;2023-08-17T12:16:25;101387.25;;;24.48;78.66
57234;BME280;43090;52.604;13.318;2023-08-17T12:18:52;101395.56;;;24.55;73.03
57234;BME280;43090;52.604;13.318;2023-08-17T12:21:23;101386.00;;;24.36;73.72
57234;BME280;43090;52.604;13.318;2023-08-17T12:23:50;101383.06;;;24.90;70.99
57234;BME280;43090;52.604;13.318;2023-08-17T12:26:21;101392.09;;;24.61;76.16
57234;BME280;43090;52.604;13.318;2023-08-17T12:28:48;101389.56;;;24.74;78.17
57234;BME280;43090;52.604;13.318;2023-08-17T12:31:21;101379.94;;;24.64;76.59
57234;BME280;43090;52.604;13.318;2023-08-17T12:33:49;101371.34;;;24.43;77.96
57234;BME280;43090;52.604;13.318;2023-08-17T12:36:16;101385.13;;;24.88;78.49
57234;BME280;43090;52.604;13.318;2023-08-17T12:38:44;101378.59;;;24.59;77.77
57234;BME280;43090;52.604;13.318;2023-08-17T12:41:13;101364.16;;;24.27;81.17
57234;BME280;43090;52.604;13.318;2023-08-17T12:43:40;101370.13;;;24.46;80.68
57234;BME280;43090;52.604;13.318;2023-08-17T12:46:06;101386.75;;;24.44;79.49
57234;BME280;43090;52.604;13.318;2023-08-17T12:48:33;101367.69;;;24.51;79.26
57234;BME280;43090;52.604;13.318;2023-08-17T12:51:02;101363.81;;;24.31;81.84
57234;BME280;43090;52.604;13.318;2023-08-17T12:53:30;101360.91;;;24.47;79.45
57234;BME280;43090;52.604;13.318;2023-08-17T12:55:57;101358.84;;;24.49;79.86
57234;BME280;43090;52.604;13.318;2023-08-17T12:58:24;101352.28;;;24.73;80.15
57234;BME280;43090;52.604;13.318;2023-08-17T13:00:51;101362.66;;;24.93;77.85
57234;BME280;43090;52.604;13.318;2023-08-17T13:03:20;101362.75;;;24.70;78.70
57234;BME280;43090;52.604;13.318;2023-08-17T13:05:50;101342.81;;;24.61;81.04
57234;BME280;43090;52.604;13.318;2023-08-17T13:08:20;101329.22;;;24.98;79.61
57234;BME280;43090;52.604;13.318;2023-08-17T13:10:47;101339.63;;;24.87;78.61
57234;BME280;43090;52.604;13.318;2023-08-17T13:13:13;101360.28;;;25.20;82.56
57234;BME280;43090;52.604;13.318;2023-08-17T13:15:40;101347.00;;;24.87;79.64
57234;BME280;43090;52.604;13.318;2023-08-17T13:18:08;101350.72;;;25.31;74.45
57234;BME280;43090;52.604;13.318;2023-08-17T13:20:34;101356.19;;;25.31;76.71
57234;BME280;43090;52.604;13.318;2023-08-17T13:23:02;101340.91;;;25.21;76.70
57234;BME280;43090;52.604;13.318;2023-08-17T13:25:29;101327.75;;;25.32;75.77
57234;BME280;43090;52.604;13.318;2023-08-17T13:27:56;101347.63;;;25.19;78.11
57234;BME280;43090;52.604;13.318;2023-08-17T13:30:22;101341.25;;;24.97;82.49
57234;BME280;43090;52.604;13.318;2023-08-17T13:32:50;101326.56;;;25.19;79.96
57234;BME280;43090;52.604;13.318;2023-08-17T13:35:17;101326.06;;;25.31;77.12
57234;BME280;43090;52.604;13.318;2023-08-17T13:37:43;101335.50;;;25.28;78.67
57234;BME280;43090;52.604;13.318;2023-08-17T13:40:10;101342.81;;;25.36;77.78
57234;BME280;43090;52.604;13.318;2023-08-17T13:42:37;101331.44;;;24.87;81.33
57234;BME280;43090;52.604;13.318;2023-08-17T13:45:04;101324.31;;;25.08;81.21
57234;BME280;43090;52.604;13.318;2023-08-17T13:47:30;101329.50;;;25.03;79.65
57234;BME280;43090;52.604;13.318;2023-08-17T13:49:57;101339.19;;;25.50;77.85
57234;BME280;43090;52.604;13.318;2023-08-17T13:52:25;101337.53;;;25.04;82.03
57234;BME280;43090;52.604;13.318;2023-08-17T13:54:53;101334.06;;;24.95;81.28
57234;BME280;43090;52.604;13.318;2023-08-17T13:57:20;101335.28;;;24.93;80.95
57234;BME280;43090;52.604;13.318;2023-08-17T13:59:46;101336.50;;;24.90;81.81
57234;BME280;43090;52.604;13.318;2023-08-17T14:02:13;101329.50;;;25.18;76.28
57234;BME280;43090;52.604;13.318;2023-08-17T14:04:39;101318.94;;;24.70;79.55
57234;BME280;43090;52.604;13.318;2023-08-17T14:07:06;101333.56;;;25.07;78.75
57234;BME280;43090;52.604;13.318;2023-08-17T14:09:32;101307.66;;;25.09;77.51
57234;BME280;43090;52.604;13.318;2023-08-17T14:12:19;101299.09;;;24.98;71.70
57234;BME280;43090;52.604;13.318;2023-08-17T14:14:46;101319.06;;;25.28;78.62
57234;BME280;43090;52.604;13.318;2023-08-17T14:17:12;101296.09;;;25.29;78.06
57234;BME280;43090;52.604;13.318;2023-08-17T14:19:38;101312.81;;;25.49;78.48
57234;BME280;43090;52.604;13.318;2023-08-17T14:22:05;101306.84;;;25.09;79.42